createdAt,value
2017-06-20T00:00:02.673Z,91.26
2017-06-20T00:05:03.378Z,90.34
2017-06-20T00:10:02.831Z,89.67
2017-06-20T00:15:03.087Z,88.42
2017-06-20T00:20:03.438Z,87.74
2017-06-20T00:25:02.861Z,86.49
2017-06-20T00:30:03.411Z,85.97
2017-06-20T00:35:02.813Z,84.72
2017-06-20T00:40:02.937Z,83.95
2017-06-20T00:45:03.269Z,82.94
2017-06-20T00:50:02.692Z,82.46
2017-06-20T00:55:03.174Z,81.7
2017-06-20T01:00:02.610Z,80.25
2017-06-20T01:05:03.067Z,80.15
2017-06-20T01:10:03.422Z,79.48
2017-06-20T01:15:02.702Z,77.9
2017-06-20T01:20:03.146Z,78.19
2017-06-20T01:25:03.424Z,77.71
2017-06-20T01:30:02.801Z,77.04
2017-06-20T01:35:03.136Z,75.59
2017-06-20T01:40:02.623Z,75.07
2017-06-20T01:45:02.974Z,74.98
2017-06-20T01:50:03.457Z,74.02
2017-06-20T01:55:02.842Z,73.92
2017-06-20T02:00:03.179Z,73.83
2017-06-20T02:05:02.612Z,73.06
2017-06-20T02:10:03.024Z,72.86
2017-06-20T02:15:03.330Z,72.77
2017-06-20T02:20:02.761Z,72.44
2017-06-20T02:25:03.230Z,72.25
2017-06-20T02:30:02.697Z,72.25
2017-06-20T02:35:03.003Z,72.16
2017-06-20T02:40:03.370Z,71.96
2017-06-20T02:45:02.815Z,71.67
2017-06-20T02:50:03.282Z,71.39
2017-06-20T02:55:02.677Z,71.29
2017-06-20T03:00:03.004Z,71.19
2017-06-20T03:05:03.431Z,71.39
2017-06-20T03:10:02.793Z,70.97
2017-06-20T03:15:03.307Z,70.87
2017-06-20T03:20:02.655Z,70.78
2017-06-20T03:25:02.993Z,70.87
2017-06-20T03:30:03.370Z,70.58
2017-06-20T03:35:02.728Z,70.29
2017-06-20T03:40:03.112Z,70.1
2017-06-20T03:45:03.571Z,69.91
2017-06-20T03:50:02.895Z,70.01
2017-06-20T03:55:03.210Z,70.01
2017-06-20T04:00:03.721Z,69.81
2017-06-20T04:05:03.080Z,69.81
2017-06-20T04:10:03.493Z,69.72
2017-06-20T04:15:02.936Z,69.91
2017-06-20T04:20:03.327Z,70.14
2017-06-20T04:25:02.654Z,70.33
2017-06-20T04:30:03.224Z,70.62
2017-06-20T04:35:02.680Z,71.1
2017-06-20T04:40:03.187Z,71.52
2017-06-20T04:45:03.546Z,72
2017-06-20T04:50:02.954Z,72.38
2017-06-20T04:55:03.430Z,72.9
2017-06-20T05:00:02.783Z,73.57
2017-06-20T05:05:03.049Z,74.67
2017-06-20T05:10:03.505Z,75.54
2017-06-20T05:15:02.761Z,76.44
2017-06-20T05:20:03.147Z,78.11
2017-06-20T05:25:03.485Z,79.27
2017-06-20T05:30:02.891Z,80.37
2017-06-20T05:35:03.333Z,81.72
2017-06-20T05:40:02.772Z,83.69
2017-06-20T05:45:03.114Z,84.94
2017-06-20T05:50:02.673Z,86.04
2017-06-20T05:55:03.091Z,88.5
2017-06-20T06:00:02.605Z,89.41
2017-06-20T06:05:03.047Z,91.87
2017-06-20T06:10:03.577Z,93.61
2017-06-20T06:15:02.897Z,95.1
2017-06-20T06:20:03.271Z,95.54
2017-06-20T06:25:02.766Z,96.75
2017-06-20T06:30:03.123Z,97.57
2017-06-20T06:35:03.486Z,98.63
2017-06-20T06:40:02.945Z,98.97
2017-06-20T06:45:03.286Z,99.6
2017-06-20T06:50:02.766Z,99.75
2017-06-20T06:55:03.141Z,99.99
2017-06-20T07:00:03.588Z,99.99
2017-06-20T07:05:03.085Z,99.99
2017-06-20T07:10:03.493Z,99.99
2017-06-20T07:15:02.772Z,99.99
2017-06-20T07:20:03.090Z,99.99
2017-06-20T07:25:03.585Z,99.99
2017-06-20T07:30:02.861Z,99.51
2017-06-20T07:35:03.200Z,99.07
2017-06-20T07:40:02.659Z,97.42
2017-06-20T07:45:02.976Z,95.71
2017-06-20T07:50:03.482Z,93.13
2017-06-20T07:55:02.880Z,91.91
2017-06-20T08:00:03.391Z,89.37
2017-06-20T08:05:02.814Z,87.8
2017-06-20T08:10:03.295Z,83.84
2017-06-20T08:15:02.815Z,80.21
2017-06-20T08:20:02.934Z,76.31
2017-06-20T08:25:03.277Z,77.12
2017-06-20T08:30:03.304Z,75.21
2017-06-20T08:35:02.607Z,73.19
2017-06-20T08:40:03.291Z,71.66
2017-06-20T08:45:03.505Z,70.29
2017-06-20T08:50:02.821Z,70.42
2017-06-20T08:55:03.323Z,69.27
2017-06-20T09:00:03.273Z,67.77
2017-06-20T09:05:03.569Z,67.25
2017-06-20T09:10:02.673Z,67.29
2017-06-20T09:15:03.087Z,65.88
2017-06-20T09:20:03.372Z,66.11
2017-06-20T09:25:02.704Z,65.29
2017-06-20T09:30:03.111Z,64.07
2017-06-20T09:35:02.844Z,63.88
2017-06-20T09:40:03.326Z,62.73
2017-06-20T09:45:02.984Z,62.66
2017-06-20T09:50:03.507Z,62.4
2017-06-20T09:55:03.228Z,60.95
2017-06-20T10:00:03.358Z,60.13
2017-06-20T10:05:02.931Z,59.05
2017-06-20T10:10:03.179Z,60.72
2017-06-20T10:15:02.947Z,58.09
2017-06-20T10:20:03.240Z,60
2017-06-20T10:25:03.509Z,59.2
2017-06-20T10:30:02.614Z,58.5
2017-06-20T10:35:02.988Z,57.05
2017-06-20T10:40:03.587Z,56.48
2017-06-20T10:45:02.830Z,55.33
2017-06-20T10:50:03.108Z,54.76
2017-06-20T10:55:02.772Z,54.17
2017-06-20T11:00:03.007Z,54.96
2017-06-20T11:05:02.872Z,54.96
2017-06-20T11:10:03.019Z,53.72
2017-06-20T11:15:03.038Z,53.13
2017-06-20T11:20:02.710Z,53.6
2017-06-20T11:25:02.596Z,53.87
2017-06-20T11:30:03.142Z,53.35
2017-06-20T11:35:03.594Z,53.28
2017-06-20T11:40:02.641Z,53.05
2017-06-20T11:45:02.983Z,53.18
2017-06-20T11:50:03.034Z,52.69
2017-06-20T11:55:03.163Z,52.19
2017-06-20T12:00:03.154Z,53.62
2017-06-20T12:05:03.181Z,53.45
2017-06-20T12:10:03.182Z,53.38
2017-06-20T12:15:03.526Z,53.55
2017-06-20T12:20:03.347Z,53.05
2017-06-20T12:25:03.482Z,53.33
2017-06-20T12:30:03.345Z,52.76
2017-06-20T12:35:02.720Z,52.98
2017-06-20T12:40:03.034Z,53.13
2017-06-20T12:45:02.640Z,52.44
2017-06-20T12:50:02.796Z,53.67
2017-06-20T12:55:03.211Z,53.64
2017-06-20T13:00:03.437Z,53.96
2017-06-20T13:05:03.293Z,53.08
2017-06-20T13:10:02.573Z,52.75
2017-06-20T13:15:02.970Z,53.91
2017-06-20T13:20:03.230Z,53.3
2017-06-20T13:25:03.156Z,53.05
2017-06-20T13:30:03.468Z,53.34
2017-06-20T13:35:03.093Z,52.36
2017-06-20T13:40:03.396Z,52.06
2017-06-20T13:45:03.448Z,52.38
2017-06-20T13:50:02.638Z,53.07
2017-06-20T13:55:03.019Z,53.54
2017-06-20T14:00:03.327Z,53.34
2017-06-20T14:05:02.824Z,53.51
2017-06-20T14:10:03.176Z,53.81
2017-06-20T14:15:03.426Z,54.49
2017-06-20T14:20:02.699Z,54.37
2017-06-20T14:25:02.912Z,55.03
2017-06-20T14:30:03.200Z,56.26
2017-06-20T14:35:03.517Z,56.92
2017-06-20T14:40:03.009Z,57.63
2017-06-20T14:45:03.310Z,56.48
2017-06-20T14:50:02.687Z,56.45
2017-06-20T14:55:02.590Z,56.74
2017-06-20T15:00:03.205Z,56.94
2017-06-20T15:05:02.769Z,56.72
2017-06-20T15:10:03.234Z,57.01
2017-06-20T15:15:03.386Z,56.59
2017-06-20T15:20:02.980Z,57.22
2017-06-20T15:25:02.935Z,57.98
2017-06-20T15:30:03.395Z,58.37
2017-06-20T15:35:03.087Z,58.47
2017-06-20T15:40:03.265Z,58.73
2017-06-20T15:45:03.479Z,59.66
2017-06-20T15:50:03.584Z,63.77
2017-06-20T15:55:02.666Z,67.8
2017-06-20T16:00:02.981Z,69.17
2017-06-20T16:05:03.280Z,70.63
2017-06-20T16:10:02.609Z,70.6
2017-06-20T16:15:03.490Z,70.92
2017-06-20T16:20:03.385Z,71.64
2017-06-20T16:25:02.873Z,72.38
2017-06-20T16:30:03.055Z,73.32
2017-06-20T16:35:03.516Z,74.93
2017-06-20T16:40:03.430Z,76.75
2017-06-20T16:45:03.125Z,79.63
2017-06-20T16:50:03.339Z,80.3
2017-06-20T16:55:02.588Z,82.06
2017-06-20T17:00:03.021Z,81.96
2017-06-20T17:05:03.413Z,83.22
2017-06-20T17:10:02.658Z,83.57
2017-06-20T17:15:03.038Z,84.25
2017-06-20T17:20:02.773Z,84.45
2017-06-20T17:25:02.777Z,84.74
2017-06-20T17:30:03.007Z,85.42
2017-06-20T17:35:03.033Z,86
2017-06-20T17:40:03.458Z,86.44
2017-06-20T17:45:03.511Z,87.96
2017-06-20T17:50:02.835Z,89.8
2017-06-20T17:55:03.224Z,91.02
2017-06-20T18:00:02.929Z,92.91
2017-06-20T18:05:03.510Z,92.91
2017-06-20T18:10:02.858Z,93.4
2017-06-20T18:15:03.006Z,93.3
2017-06-20T18:20:03.228Z,93.01
2017-06-20T18:25:02.675Z,93.11
2017-06-20T18:30:02.909Z,92.77
2017-06-20T18:35:03.313Z,93.74
2017-06-20T18:40:03.049Z,94.71
2017-06-20T18:45:02.739Z,95.15
2017-06-20T18:50:03.038Z,95.15
2017-06-20T18:55:02.692Z,95.97
2017-06-20T19:00:02.806Z,96.17
2017-06-20T19:05:02.711Z,97.13
2017-06-20T19:10:03.217Z,97.28
2017-06-20T19:15:03.240Z,96.55
2017-06-20T19:20:02.694Z,96.17
2017-06-20T19:25:03.331Z,96.55
2017-06-20T19:30:03.335Z,97.28
2017-06-20T19:35:03.481Z,97.67
2017-06-20T19:40:03.099Z,98.49
2017-06-20T19:45:02.549Z,98.88
2017-06-20T19:50:03.420Z,99.46
2017-06-20T19:55:03.324Z,99.89
2017-06-20T20:00:02.942Z,99.99
2017-06-20T20:05:03.398Z,99.99
2017-06-20T20:10:03.399Z,99.99
2017-06-20T20:15:02.871Z,99.99
2017-06-20T20:20:02.958Z,99.99
2017-06-20T20:25:03.394Z,99.99
2017-06-20T20:30:03.298Z,99.99
2017-06-20T20:35:03.148Z,99.99
2017-06-20T20:40:03.366Z,99.99
2017-06-20T20:45:02.895Z,99.99
2017-06-20T20:50:03.171Z,99.99
2017-06-20T20:55:02.873Z,99.99
2017-06-20T21:00:03.382Z,99.99
2017-06-20T21:05:03.469Z,99.99
2017-06-20T21:10:02.738Z,99.99
2017-06-20T21:15:03.047Z,99.99
2017-06-20T21:20:03.387Z,99.99
2017-06-20T21:25:03.567Z,99.99
2017-06-20T21:30:03.336Z,99.99
2017-06-20T21:35:02.815Z,99.99
2017-06-20T21:40:03.199Z,99.99
2017-06-20T21:45:02.650Z,99.99
2017-06-20T21:50:03.040Z,99.99
2017-06-20T21:55:03.516Z,99.99
2017-06-20T22:00:02.810Z,99.99
2017-06-20T22:05:03.330Z,99.99
2017-06-20T22:10:02.700Z,99.99
2017-06-20T22:15:03.208Z,99.99
2017-06-20T22:20:02.723Z,99.99
2017-06-20T22:25:03.103Z,99.99
2017-06-20T22:30:02.593Z,99.99
2017-06-20T22:35:03.005Z,99.99
2017-06-20T22:40:03.285Z,99.99
2017-06-20T22:45:02.616Z,99.99
2017-06-20T22:50:03.026Z,99.99
2017-06-20T22:55:03.321Z,99.99
2017-06-20T23:00:02.878Z,99.99
2017-06-20T23:05:03.536Z,99.99
2017-06-20T23:10:02.869Z,99.99
2017-06-20T23:15:03.345Z,99.99
2017-06-20T23:20:02.806Z,99.99
2017-06-20T23:25:03.248Z,99.99
2017-06-20T23:30:03.558Z,99.99
2017-06-20T23:35:02.951Z,99.99
2017-06-20T23:40:03.419Z,99.99
2017-06-20T23:45:02.786Z,99.99
2017-06-20T23:50:03.126Z,99.99
2017-06-20T23:55:02.638Z,99.99
